sensor_id;sensor_type;location;lat;lon;timestamp;temperature;humidity
9668;DHT22;4872;48.316;10.650;2023-10-09T04:13:27;13.00;99.10
9668;DHT22;4872;48.316;10.650;2023-10-09T04:16:00;13.10;99.30
9668;DHT22;4872;48.316;10.650;2023-10-09T04:18:35;13.10;99.30
9668;DHT22;4872;48.316;10.650;2023-10-09T04:21:05;13.10;99.30
9668;DHT22;4872;48.316;10.650;2023-10-09T04:23:44;13.40;99.60
9668;DHT22;4872;48.316;10.650;2023-10-09T04:26:35;13.10;99.40
9668;DHT22;4872;48.316;10.650;2023-10-09T04:29:04;13.20;99.40
9668;DHT22;4872;48.316;10.650;2023-10-09T04:31:31;13.20;99.30
9668;DHT22;4872;48.316;10.650;2023-10-09T04:34:03;13.20;99.30
9668;DHT22;4872;48.316;10.650;2023-10-09T04:36:55;13.30;99.30
9668;DHT22;4872;48.316;10.650;2023-10-09T04:39:26;13.30;99.20
9668;DHT22;4872;48.316;10.650;2023-10-09T04:42:03;13.60;99.10
9668;DHT22;4872;48.316;10.650;2023-10-09T04:44:48;13.30;99.00
9668;DHT22;4872;48.316;10.650;2023-10-09T04:47:41;13.30;99.10
9668;DHT22;4872;48.316;10.650;2023-10-09T04:50:24;13.30;98.90
9668;DHT22;4872;48.316;10.650;2023-10-09T04:53:12;13.40;99.00
9668;DHT22;4872;48.316;10.650;2023-10-09T04:55:50;13.30;98.90
9668;DHT22;4872;48.316;10.650;2023-10-09T04:58:30;13.30;98.80
9668;DHT22;4872;48.316;10.650;2023-10-09T05:01:00;13.40;98.80
9668;DHT22;4872;48.316;10.650;2023-10-09T05:03:38;13.30;98.80
9668;DHT22;4872;48.316;10.650;2023-10-09T05:06:12;13.40;98.70
9668;DHT22;4872;48.316;10.650;2023-10-09T05:08:47;13.30;98.60
9668;DHT22;4872;48.316;10.650;2023-10-09T05:11:14;13.30;98.70
9668;DHT22;4872;48.316;10.650;2023-10-09T05:13:58;13.30;98.70
9668;DHT22;4872;48.316;10.650;2023-10-09T05:16:38;13.30;98.60
9668;DHT22;4872;48.316;10.650;2023-10-09T05:19:20;13.30;98.50
9668;DHT22;4872;48.316;10.650;2023-10-09T05:21:55;13.30;98.50
9668;DHT22;4872;48.316;10.650;2023-10-09T05:24:24;13.30;98.50
9668;DHT22;4872;48.316;10.650;2023-10-09T05:26:52;13.30;98.50
9668;DHT22;4872;48.316;10.650;2023-10-09T05:29:20;13.30;98.50
9668;DHT22;4872;48.316;10.650;2023-10-09T05:32:02;13.20;98.50
9668;DHT22;4872;48.316;10.650;2023-10-09T05:34:31;13.20;98.50
9668;DHT22;4872;48.316;10.650;2023-10-09T05:36:59;13.20;98.50
9668;DHT22;4872;48.316;10.650;2023-10-09T05:39:43;13.20;98.60
9668;DHT22;4872;48.316;10.650;2023-10-09T05:42:09;13.30;98.50
9668;DHT22;4872;48.316;10.650;2023-10-09T05:44:42;13.30;98.50
9668;DHT22;4872;48.316;10.650;2023-10-09T05:47:39;13.40;98.50
9668;DHT22;4872;48.316;10.650;2023-10-09T05:50:09;13.40;98.40
9668;DHT22;4872;48.316;10.650;2023-10-09T05:53:02;13.40;98.40
9668;DHT22;4872;48.316;10.650;2023-10-09T05:55:35;13.30;98.30
9668;DHT22;4872;48.316;10.650;2023-10-09T05:58:19;13.40;98.30
9668;DHT22;4872;48.316;10.650;2023-10-09T06:01:05;13.40;98.30
9668;DHT22;4872;48.316;10.650;2023-10-09T06:03:54;13.40;98.30
9668;DHT22;4872;48.316;10.650;2023-10-09T06:06:20;13.50;98.30
9668;DHT22;4872;48.316;10.650;2023-10-09T06:09:00;13.50;98.40
9668;DHT22;4872;48.316;10.650;2023-10-09T06:11:54;13.50;98.40
9668;DHT22;4872;48.316;10.650;2023-10-09T06:14:46;13.50;98.40
9668;DHT22;4872;48.316;10.650;2023-10-09T06:17:44;13.60;98.40
9668;DHT22;4872;48.316;10.650;2023-10-09T06:20:17;13.70;97.90
9668;DHT22;4872;48.316;10.650;2023-10-09T06:23:26;13.90;97.50
9668;DHT22;4872;48.316;10.650;2023-10-09T06:26:11;13.90;97.90
9668;DHT22;4872;48.316;10.650;2023-10-09T06:28:50;13.90;98.10
9668;DHT22;4872;48.316;10.650;2023-10-09T06:31:37;14.00;98.40
9668;DHT22;4872;48.316;10.650;2023-10-09T06:34:18;14.10;98.50
9668;DHT22;4872;48.316;10.650;2023-10-09T06:36:47;14.10;98.50
9668;DHT22;4872;48.316;10.650;2023-10-09T06:39:18;14.10;98.50
9668;DHT22;4872;48.316;10.650;2023-10-09T06:42:03;14.20;98.60
9668;DHT22;4872;48.316;10.650;2023-10-09T06:44:55;14.30;98.70
9668;DHT22;4872;48.316;10.650;2023-10-09T06:47:22;14.40;98.70
9668;DHT22;4872;48.316;10.650;2023-10-09T06:49:49;15.30;98.90
9668;DHT22;4872;48.316;10.650;2023-10-09T06:52:31;14.80;98.40
9668;DHT22;4872;48.316;10.650;2023-10-09T06:55:12;14.70;97.70
9668;DHT22;4872;48.316;10.650;2023-10-09T06:57:45;14.90;97.60
9668;DHT22;4872;48.316;10.650;2023-10-09T07:00:15;15.00;97.70
9668;DHT22;4872;48.316;10.650;2023-10-09T07:02:59;15.20;97.80
9668;DHT22;4872;48.316;10.650;2023-10-09T07:05:36;15.30;97.70
9668;DHT22;4872;48.316;10.650;2023-10-09T07:08:25;15.40;97.80
9668;DHT22;4872;48.316;10.650;2023-10-09T07:11:03;15.50;98.00
9668;DHT22;4872;48.316;10.650;2023-10-09T07:13:44;15.70;98.10
9668;DHT22;4872;48.316;10.650;2023-10-09T07:16:20;15.90;97.50
9668;DHT22;4872;48.316;10.650;2023-10-09T07:18:49;16.10;97.80
9668;DHT22;4872;48.316;10.650;2023-10-09T07:21:20;16.20;97.90
9668;DHT22;4872;48.316;10.650;2023-10-09T07:23:55;16.50;98.20
9668;DHT22;4872;48.316;10.650;2023-10-09T07:26:24;16.60;98.30
9668;DHT22;4872;48.316;10.650;2023-10-09T07:29:03;16.70;97.70
9668;DHT22;4872;48.316;10.650;2023-10-09T07:31:42;16.90;97.30
9668;DHT22;4872;48.316;10.650;2023-10-09T07:34:11;17.00;97.40
9668;DHT22;4872;48.316;10.650;2023-10-09T07:37:03;17.10;96.80
9668;DHT22;4872;48.316;10.650;2023-10-09T07:39:32;17.20;95.80
9668;DHT22;4872;48.316;10.650;2023-10-09T07:42:04;17.20;96.50
9668;DHT22;4872;48.316;10.650;2023-10-09T07:44:45;17.30;96.70
9668;DHT22;4872;48.316;10.650;2023-10-09T07:47:18;17.30;96.30
9668;DHT22;4872;48.316;10.650;2023-10-09T07:49:48;17.30;95.70
9668;DHT22;4872;48.316;10.650;2023-10-09T07:52:18;17.30;95.30
9668;DHT22;4872;48.316;10.650;2023-10-09T07:54:49;17.40;95.30
9668;DHT22;4872;48.316;10.650;2023-10-09T07:57:29;17.40;95.10
9668;DHT22;4872;48.316;10.650;2023-10-09T08:00:05;17.60;94.60
9668;DHT22;4872;48.316;10.650;2023-10-09T08:02:59;17.50;95.40
9668;DHT22;4872;48.316;10.650;2023-10-09T08:05:27;17.50;95.30
9668;DHT22;4872;48.316;10.650;2023-10-09T08:07:59;17.70;95.40
9668;DHT22;4872;48.316;10.650;2023-10-09T08:10:45;17.70;95.80
9668;DHT22;4872;48.316;10.650;2023-10-09T08:13:29;17.60;96.10
9668;DHT22;4872;48.316;10.650;2023-10-09T08:16:13;17.60;96.40
9668;DHT22;4872;48.316;10.650;2023-10-09T08:18:47;17.60;96.80
9668;DHT22;4872;48.316;10.650;2023-10-09T08:21:16;17.60;96.60
9668;DHT22;4872;48.316;10.650;2023-10-09T08:24:03;17.60;96.80
9668;DHT22;4872;48.316;10.650;2023-10-09T08:26:31;17.60;96.90
9668;DHT22;4872;48.316;10.650;2023-10-09T08:29:12;17.50;96.70
9668;DHT22;4872;48.316;10.650;2023-10-09T08:31:43;17.60;96.20
9668;DHT22;4872;48.316;10.650;2023-10-09T08:34:12;17.60;96.20
9668;DHT22;4872;48.316;10.650;2023-10-09T08:36:50;17.70;96.00
9668;DHT22;4872;48.316;10.650;2023-10-09T08:39:18;17.50;95.30
9668;DHT22;4872;48.316;10.650;2023-10-09T08:41:52;17.70;95.40
9668;DHT22;4872;48.316;10.650;2023-10-09T08:44:20;17.70;95.10
9668;DHT22;4872;48.316;10.650;2023-10-09T08:46:50;17.70;94.80
9668;DHT22;4872;48.316;10.650;2023-10-09T08:49:17;17.70;95.00
9668;DHT22;4872;48.316;10.650;2023-10-09T08:51:44;17.80;95.10
9668;DHT22;4872;48.316;10.650;2023-10-09T08:54:12;17.80;94.90
9668;DHT22;4872;48.316;10.650;2023-10-09T08:56:41;17.90;94.90
9668;DHT22;4872;48.316;10.650;2023-10-09T08:59:16;17.80;94.20
9668;DHT22;4872;48.316;10.650;2023-10-09T09:01:45;17.90;94.10
9668;DHT22;4872;48.316;10.650;2023-10-09T09:04:35;18.10;94.00
9668;DHT22;4872;48.316;10.650;2023-10-09T09:07:03;18.20;94.10
9668;DHT22;4872;48.316;10.650;2023-10-09T09:09:30;18.30;93.70
9668;DHT22;4872;48.316;10.650;2023-10-09T09:11:59;18.40;93.30
9668;DHT22;4872;48.316;10.650;2023-10-09T09:14:37;18.50;92.70
9668;DHT22;4872;48.316;10.650;2023-10-09T09:17:04;18.60;93.20
9668;DHT22;4872;48.316;10.650;2023-10-09T09:19:36;18.70;93.40
9668;DHT22;4872;48.316;10.650;2023-10-09T09:22:04;18.70;93.30
9668;DHT22;4872;48.316;10.650;2023-10-09T09:24:38;18.80;92.80
9668;DHT22;4872;48.316;10.650;2023-10-09T09:27:11;18.90;92.60
9668;DHT22;4872;48.316;10.650;2023-10-09T09:29:45;19.00;92.80
9668;DHT22;4872;48.316;10.650;2023-10-09T09:32:27;19.10;92.90
9668;DHT22;4872;48.316;10.650;2023-10-09T09:35:01;19.20;92.80
9668;DHT22;4872;48.316;10.650;2023-10-09T09:37:31;19.30;92.60
9668;DHT22;4872;48.316;10.650;2023-10-09T09:40:16;19.30;92.20
9668;DHT22;4872;48.316;10.650;2023-10-09T09:42:57;19.30;92.20
9668;DHT22;4872;48.316;10.650;2023-10-09T09:45:32;19.40;92.30
9668;DHT22;4872;48.316;10.650;2023-10-09T09:48:00;19.40;91.70
9668;DHT22;4872;48.316;10.650;2023-10-09T09:50:31;19.40;91.30
9668;DHT22;4872;48.316;10.650;2023-10-09T09:52:58;19.50;91.60
9668;DHT22;4872;48.316;10.650;2023-10-09T09:55:28;19.60;91.30
9668;DHT22;4872;48.316;10.650;2023-10-09T09:57:59;19.70;90.30
9668;DHT22;4872;48.316;10.650;2023-10-09T10:00:33;19.60;90.40
9668;DHT22;4872;48.316;10.650;2023-10-09T10:03:11;19.70;90.10
9668;DHT22;4872;48.316;10.650;2023-10-09T10:05:40;19.70;89.90
9668;DHT22;4872;48.316;10.650;2023-10-09T10:08:08;19.80;90.20
9668;DHT22;4872;48.316;10.650;2023-10-09T10:10:40;19.90;90.10
9668;DHT22;4872;48.316;10.650;2023-10-09T10:13:16;20.00;90.20
9668;DHT22;4872;48.316;10.650;2023-10-09T10:16:06;20.00;90.00
9668;DHT22;4872;48.316;10.650;2023-10-09T10:18:55;20.10;90.00
9668;DHT22;4872;48.316;10.650;2023-10-09T10:21:48;20.20;89.10
9668;DHT22;4872;48.316;10.650;2023-10-09T10:24:40;20.20;87.30
9668;DHT22;4872;48.316;10.650;2023-10-09T10:27:19;20.20;88.30
9668;DHT22;4872;48.316;10.650;2023-10-09T10:32:59;20.30;88.90
9668;DHT22;4872;48.316;10.650;2023-10-09T10:35:35;20.30;89.30
9668;DHT22;4872;48.316;10.650;2023-10-09T10:38:27;20.50;88.60
9668;DHT22;4872;48.316;10.650;2023-10-09T10:41:13;20.40;88.70
9668;DHT22;4872;48.316;10.650;2023-10-09T10:43:42;20.50;90.00
9668;DHT22;4872;48.316;10.650;2023-10-09T10:46:21;20.60;88.90
9668;DHT22;4872;48.316;10.650;2023-10-09T10:49:02;20.60;87.40
9668;DHT22;4872;48.316;10.650;2023-10-09T10:51:40;20.70;88.00
9668;DHT22;4872;48.316;10.650;2023-10-09T10:54:21;20.80;87.50
9668;DHT22;4872;48.316;10.650;2023-10-09T10:57:18;20.80;87.80
9668;DHT22;4872;48.316;10.650;2023-10-09T10:59:54;20.80;86.50
9668;DHT22;4872;48.316;10.650;2023-10-09T11:02:37;20.80;86.40
9668;DHT22;4872;48.316;10.650;2023-10-09T11:05:05;20.90;86.40
9668;DHT22;4872;48.316;10.650;2023-10-09T11:07:49;20.90;86.40
9668;DHT22;4872;48.316;10.650;2023-10-09T11:10:22;21.00;87.00
9668;DHT22;4872;48.316;10.650;2023-10-09T11:12:53;21.00;86.20
9668;DHT22;4872;48.316;10.650;2023-10-09T11:15:35;21.10;86.80
9668;DHT22;4872;48.316;10.650;2023-10-09T11:18:10;21.10;86.10
9668;DHT22;4872;48.316;10.650;2023-10-09T11:20:44;21.10;86.40
9668;DHT22;4872;48.316;10.650;2023-10-09T11:23:23;21.00;87.00
9668;DHT22;4872;48.316;10.650;2023-10-09T11:26:03;21.10;86.10
9668;DHT22;4872;48.316;10.650;2023-10-09T11:28:46;21.00;86.80
9668;DHT22;4872;48.316;10.650;2023-10-09T11:31:22;21.00;86.40
9668;DHT22;4872;48.316;10.650;2023-10-09T11:33:49;21.00;86.70
9668;DHT22;4872;48.316;10.650;2023-10-09T11:36:19;21.00;87.30
9668;DHT22;4872;48.316;10.650;2023-10-09T11:38:47;21.00;87.10
9668;DHT22;4872;48.316;10.650;2023-10-09T11:41:15;21.00;87.10
9668;DHT22;4872;48.316;10.650;2023-10-09T11:43:50;20.90;86.50
9668;DHT22;4872;48.316;10.650;2023-10-09T11:46:18;20.90;86.60
9668;DHT22;4872;48.316;10.650;2023-10-09T11:49:08;20.80;87.30
9668;DHT22;4872;48.316;10.650;2023-10-09T11:52:05;20.80;87.20
9668;DHT22;4872;48.316;10.650;2023-10-09T11:54:49;20.90;87.40
9668;DHT22;4872;48.316;10.650;2023-10-09T11:57:16;20.80;88.20
9668;DHT22;4872;48.316;10.650;2023-10-09T11:59:43;20.80;88.10
9668;DHT22;4872;48.316;10.650;2023-10-09T12:02:10;20.80;88.00
9668;DHT22;4872;48.316;10.650;2023-10-09T12:04:38;20.90;88.20
9668;DHT22;4872;48.316;10.650;2023-10-09T12:07:08;20.80;87.90
9668;DHT22;4872;48.316;10.650;2023-10-09T12:09:36;20.90;88.20
9668;DHT22;4872;48.316;10.650;2023-10-09T12:12:04;20.80;88.40
9668;DHT22;4872;48.316;10.650;2023-10-09T12:14:32;20.70;88.20
9668;DHT22;4872;48.316;10.650;2023-10-09T12:17:00;20.70;88.30
9668;DHT22;4872;48.316;10.650;2023-10-09T12:19:31;20.60;88.80
9668;DHT22;4872;48.316;10.650;2023-10-09T12:21:58;20.60;89.20
9668;DHT22;4872;48.316;10.650;2023-10-09T12:24:28;20.60;89.10
9668;DHT22;4872;48.316;10.650;2023-10-09T12:26:56;20.60;89.60
9668;DHT22;4872;48.316;10.650;2023-10-09T12:29:23;20.60;89.70
9668;DHT22;4872;48.316;10.650;2023-10-09T12:31:50;20.60;90.00
9668;DHT22;4872;48.316;10.650;2023-10-09T12:34:23;20.60;90.10
9668;DHT22;4872;48.316;10.650;2023-10-09T12:36:52;20.50;90.10
9668;DHT22;4872;48.316;10.650;2023-10-09T12:39:19;20.40;90.00
9668;DHT22;4872;48.316;10.650;2023-10-09T12:41:48;20.50;90.20
9668;DHT22;4872;48.316;10.650;2023-10-09T12:44:19;20.50;90.30
9668;DHT22;4872;48.316;10.650;2023-10-09T12:46:46;20.50;90.30
9668;DHT22;4872;48.316;10.650;2023-10-09T12:49:18;20.60;90.80
9668;DHT22;4872;48.316;10.650;2023-10-09T12:51:45;20.40;90.90
9668;DHT22;4872;48.316;10.650;2023-10-09T12:54:12;20.30;90.80
9668;DHT22;4872;48.316;10.650;2023-10-09T12:56:40;20.40;90.80
9668;DHT22;4872;48.316;10.650;2023-10-09T12:59:08;20.40;90.90
9668;DHT22;4872;48.316;10.650;2023-10-09T13:01:40;20.40;90.90
9668;DHT22;4872;48.316;10.650;2023-10-09T13:04:09;20.40;90.50
9668;DHT22;4872;48.316;10.650;2023-10-09T13:06:37;20.30;90.00
9668;DHT22;4872;48.316;10.650;2023-10-09T13:09:09;20.30;90.10
9668;DHT22;4872;48.316;10.650;2023-10-09T13:11:36;20.30;89.80
9668;DHT22;4872;48.316;10.650;2023-10-09T13:14:03;20.20;90.00
9668;DHT22;4872;48.316;10.650;2023-10-09T13:16:38;20.20;89.40
9668;DHT22;4872;48.316;10.650;2023-10-09T13:19:06;20.00;89.40
9668;DHT22;4872;48.316;10.650;2023-10-09T13:21:35;20.10;89.80
9668;DHT22;4872;48.316;10.650;2023-10-09T13:24:06;20.10;89.20
9668;DHT22;4872;48.316;10.650;2023-10-09T13:26:41;20.10;87.90
9668;DHT22;4872;48.316;10.650;2023-10-09T13:29:10;20.00;89.00
9668;DHT22;4872;48.316;10.650;2023-10-09T13:31:39;20.10;89.10
9668;DHT22;4872;48.316;10.650;2023-10-09T13:34:12;20.00;89.80
9668;DHT22;4872;48.316;10.650;2023-10-09T13:36:41;20.00;90.20
9668;DHT22;4872;48.316;10.650;2023-10-09T13:39:15;20.10;90.60
9668;DHT22;4872;48.316;10.650;2023-10-09T13:41:50;20.20;90.90
9668;DHT22;4872;48.316;10.650;2023-10-09T13:44:23;20.00;90.50
9668;DHT22;4872;48.316;10.650;2023-10-09T13:46:54;20.80;91.00
9668;DHT22;4872;48.316;10.650;2023-10-09T13:49:21;20.00;90.60
9668;DHT22;4872;48.316;10.650;2023-10-09T13:51:49;20.10;90.60
9668;DHT22;4872;48.316;10.650;2023-10-09T13:54:17;20.10;90.70
9668;DHT22;4872;48.316;10.650;2023-10-09T13:56:47;20.10;90.80
9668;DHT22;4872;48.316;10.650;2023-10-09T13:59:18;20.00;90.50
9668;DHT22;4872;48.316;10.650;2023-10-09T14:01:47;20.10;90.20
9668;DHT22;4872;48.316;10.650;2023-10-09T14:04:16;20.00;90.20
9668;DHT22;4872;48.316;10.650;2023-10-09T14:06:44;20.10;90.30
9668;DHT22;4872;48.316;10.650;2023-10-09T14:09:12;20.10;90.10
9668;DHT22;4872;48.316;10.650;2023-10-09T14:11:54;20.20;90.00
9668;DHT22;4872;48.316;10.650;2023-10-09T14:14:32;20.10;90.10
9668;DHT22;4872;48.316;10.650;2023-10-09T14:16:59;20.20;90.30
9668;DHT22;4872;48.316;10.650;2023-10-09T14:19:27;20.10;90.20
9668;DHT22;4872;48.316;10.650;2023-10-09T14:21:58;20.00;90.40
9668;DHT22;4872;48.316;10.650;2023-10-09T14:24:30;20.10;90.20
9668;DHT22;4872;48.316;10.650;2023-10-09T14:27:01;20.10;90.50
9668;DHT22;4872;48.316;10.650;2023-10-09T14:29:30;20.10;90.40
9668;DHT22;4872;48.316;10.650;2023-10-09T14:31:57;20.10;90.50
9668;DHT22;4872;48.316;10.650;2023-10-09T14:34:29;20.10;90.60
9668;DHT22;4872;48.316;10.650;2023-10-09T14:37:01;20.00;90.80
9668;DHT22;4872;48.316;10.650;2023-10-09T14:39:28;20.00;91.10
9668;DHT22;4872;48.316;10.650;2023-10-09T14:41:55;19.90;91.40
9668;DHT22;4872;48.316;10.650;2023-10-09T14:44:23;20.00;91.60
9668;DHT22;4872;48.316;10.650;2023-10-09T14:46:53;20.00;91.40
9668;DHT22;4872;48.316;10.650;2023-10-09T14:49:20;20.10;91.20
9668;DHT22;4872;48.316;10.650;2023-10-09T14:51:50;20.20;91.20
9668;DHT22;4872;48.316;10.650;2023-10-09T14:54:18;20.20;91.40
9668;DHT22;4872;48.316;10.650;2023-10-09T14:56:46;20.20;91.00
9668;DHT22;4872;48.316;10.650;2023-10-09T14:59:16;20.30;90.90
9668;DHT22;4872;48.316;10.650;2023-10-09T15:01:44;20.30;90.90
9668;DHT22;4872;48.316;10.650;2023-10-09T15:04:13;20.30;90.80
9668;DHT22;4872;48.316;10.650;2023-10-09T15:06:40;20.30;90.30
9668;DHT22;4872;48.316;10.650;2023-10-09T15:09:08;20.20;90.10
9668;DHT22;4872;48.316;10.650;2023-10-09T15:11:35;20.20;90.10
9668;DHT22;4872;48.316;10.650;2023-10-09T15:14:04;20.20;90.00
9668;DHT22;4872;48.316;10.650;2023-10-09T15:16:32;20.20;89.90
9668;DHT22;4872;48.316;10.650;2023-10-09T15:18:59;20.20;90.00
9668;DHT22;4872;48.316;10.650;2023-10-09T15:21:28;20.10;90.10
9668;DHT22;4872;48.316;10.650;2023-10-09T15:23:58;20.10;90.00
9668;DHT22;4872;48.316;10.650;2023-10-09T15:26:26;20.00;89.80
9668;DHT22;4872;48.316;10.650;2023-10-09T15:29:01;20.20;89.70
9668;DHT22;4872;48.316;10.650;2023-10-09T15:31:32;20.20;89.80
9668;DHT22;4872;48.316;10.650;2023-10-09T15:33:59;20.10;90.00
9668;DHT22;4872;48.316;10.650;2023-10-09T15:36:26;20.10;90.00
9668;DHT22;4872;48.316;10.650;2023-10-09T15:38:55;20.20;90.10
9668;DHT22;4872;48.316;10.650;2023-10-09T15:41:27;20.10;90.20
9668;DHT22;4872;48.316;10.650;2023-10-09T15:43:56;20.10;90.20
9668;DHT22;4872;48.316;10.650;2023-10-09T15:46:24;20.00;90.10
9668;DHT22;4872;48.316;10.650;2023-10-09T15:48:51;20.10;90.30
9668;DHT22;4872;48.316;10.650;2023-10-09T15:51:19;20.00;90.00
9668;DHT22;4872;48.316;10.650;2023-10-09T15:53:47;20.00;90.30
9668;DHT22;4872;48.316;10.650;2023-10-09T15:56:16;20.10;90.30
9668;DHT22;4872;48.316;10.650;2023-10-09T15:58:44;20.00;90.40
9668;DHT22;4872;48.316;10.650;2023-10-09T16:01:12;19.80;90.30
9668;DHT22;4872;48.316;10.650;2023-10-09T16:03:40;19.80;90.30
9668;DHT22;4872;48.316;10.650;2023-10-09T16:06:07;19.80;90.30
9668;DHT22;4872;48.316;10.650;2023-10-09T16:08:38;19.80;90.30
9668;DHT22;4872;48.316;10.650;2023-10-09T16:11:05;19.80;90.10
9668;DHT22;4872;48.316;10.650;2023-10-09T16:13:33;19.80;90.20
9668;DHT22;4872;48.316;10.650;2023-10-09T16:16:01;19.80;90.20
9668;DHT22;4872;48.316;10.650;2023-10-09T16:18:27;19.70;90.20
9668;DHT22;4872;48.316;10.650;2023-10-09T16:20:55;19.50;90.20
9668;DHT22;4872;48.316;10.650;2023-10-09T16:23:22;19.60;90.30
9668;DHT22;4872;48.316;10.650;2023-10-09T16:25:48;19.60;90.30
9668;DHT22;4872;48.316;10.650;2023-10-09T16:28:16;19.60;90.30
9668;DHT22;4872;48.316;10.650;2023-10-09T16:30:42;19.50;90.30
9668;DHT22;4872;48.316;10.650;2023-10-09T16:33:11;19.50;90.20
9668;DHT22;4872;48.316;10.650;2023-10-09T16:35:37;19.40;90.10
9668;DHT22;4872;48.316;10.650;2023-10-09T16:38:06;19.40;90.20
9668;DHT22;4872;48.316;10.650;2023-10-09T16:40:37;19.40;90.20
9668;DHT22;4872;48.316;10.650;2023-10-09T16:43:04;19.30;90.10
9668;DHT22;4872;48.316;10.650;2023-10-09T16:45:35;19.30;89.90
9668;DHT22;4872;48.316;10.650;2023-10-09T16:48:10;19.30;89.90
9668;DHT22;4872;48.316;10.650;2023-10-09T16:50:40;19.30;89.80
9668;DHT22;4872;48.316;10.650;2023-10-09T16:53:12;19.40;90.00
9668;DHT22;4872;48.316;10.650;2023-10-09T16:55:39;19.20;90.00
9668;DHT22;4872;48.316;10.650;2023-10-09T16:58:09;19.30;90.20
9668;DHT22;4872;48.316;10.650;2023-10-09T17:00:35;19.20;90.30
9668;DHT22;4872;48.316;10.650;2023-10-09T17:03:03;19.30;90.60
9668;DHT22;4872;48.316;10.650;2023-10-09T17:05:34;19.10;90.40
9668;DHT22;4872;48.316;10.650;2023-10-09T17:08:02;19.10;90.40
9668;DHT22;4872;48.316;10.650;2023-10-09T17:10:35;19.10;90.40
9668;DHT22;4872;48.316;10.650;2023-10-09T17:13:04;19.00;90.40
9668;DHT22;4872;48.316;10.650;2023-10-09T17:15:34;19.00;90.40
9668;DHT22;4872;48.316;10.650;2023-10-09T17:18:01;19.20;90.70
9668;DHT22;4872;48.316;10.650;2023-10-09T17:20:27;18.90;90.60
9668;DHT22;4872;48.316;10.650;2023-10-09T17:22:56;18.90;90.60
9668;DHT22;4872;48.316;10.650;2023-10-09T17:25:25;18.80;90.70
9668;DHT22;4872;48.316;10.650;2023-10-09T17:27:53;18.90;90.80
9668;DHT22;4872;48.316;10.650;2023-10-09T17:30:23;18.70;91.00
9668;DHT22;4872;48.316;10.650;2023-10-09T17:32:52;18.60;91.20
9668;DHT22;4872;48.316;10.650;2023-10-09T17:35:20;18.90;91.30
9668;DHT22;4872;48.316;10.650;2023-10-09T17:37:47;18.50;91.20
9668;DHT22;4872;48.316;10.650;2023-10-09T17:40:15;18.50;91.30
9668;DHT22;4872;48.316;10.650;2023-10-09T17:42:44;18.50;91.70
9668;DHT22;4872;48.316;10.650;2023-10-09T17:45:11;18.40;91.90
9668;DHT22;4872;48.316;10.650;2023-10-09T17:47:40;18.30;92.10
9668;DHT22;4872;48.316;10.650;2023-10-09T17:50:07;18.30;92.00
9668;DHT22;4872;48.316;10.650;2023-10-09T17:52:36;18.30;91.90
9668;DHT22;4872;48.316;10.650;2023-10-09T17:55:04;18.30;91.30
9668;DHT22;4872;48.316;10.650;2023-10-09T17:57:34;18.30;90.70
9668;DHT22;4872;48.316;10.650;2023-10-09T18:00:02;18.30;90.50
9668;DHT22;4872;48.316;10.650;2023-10-09T18:02:29;18.30;90.20
9668;DHT22;4872;48.316;10.650;2023-10-09T18:04:56;18.40;90.10
9668;DHT22;4872;48.316;10.650;2023-10-09T18:07:23;18.40;89.80
9668;DHT22;4872;48.316;10.650;2023-10-09T18:09:50;18.60;89.50
9668;DHT22;4872;48.316;10.650;2023-10-09T18:12:19;18.60;88.60
9668;DHT22;4872;48.316;10.650;2023-10-09T18:14:48;18.70;88.30
9668;DHT22;4872;48.316;10.650;2023-10-09T18:17:19;18.70;88.20
9668;DHT22;4872;48.316;10.650;2023-10-09T18:19:46;18.70;88.20
9668;DHT22;4872;48.316;10.650;2023-10-09T18:22:16;18.80;87.70
9668;DHT22;4872;48.316;10.650;2023-10-09T18:24:43;18.80;88.10
9668;DHT22;4872;48.316;10.650;2023-10-09T18:27:10;18.70;87.80
9668;DHT22;4872;48.316;10.650;2023-10-09T18:29:39;18.90;88.30
9668;DHT22;4872;48.316;10.650;2023-10-09T18:32:07;18.70;89.90
9668;DHT22;4872;48.316;10.650;2023-10-09T18:34:34;18.60;90.40
9668;DHT22;4872;48.316;10.650;2023-10-09T18:37:03;18.50;90.70
9668;DHT22;4872;48.316;10.650;2023-10-09T18:39:32;18.40;90.90
9668;DHT22;4872;48.316;10.650;2023-10-09T18:41:59;18.30;91.00
9668;DHT22;4872;48.316;10.650;2023-10-09T18:44:26;18.20;91.00
9668;DHT22;4872;48.316;10.650;2023-10-09T18:46:53;18.20;91.00
9668;DHT22;4872;48.316;10.650;2023-10-09T18:49:23;18.20;91.20
9668;DHT22;4872;48.316;10.650;2023-10-09T18:51:49;18.10;91.30
9668;DHT22;4872;48.316;10.650;2023-10-09T18:54:16;18.00;91.50
9668;DHT22;4872;48.316;10.650;2023-10-09T18:56:43;17.90;91.50
9668;DHT22;4872;48.316;10.650;2023-10-09T18:59:10;17.80;91.60
9668;DHT22;4872;48.316;10.650;2023-10-09T19:01:39;17.90;91.90
9668;DHT22;4872;48.316;10.650;2023-10-09T19:04:06;18.00;91.70
9668;DHT22;4872;48.316;10.650;2023-10-09T19:06:36;17.80;91.60
9668;DHT22;4872;48.316;10.650;2023-10-09T19:09:04;17.60;91.10
9668;DHT22;4872;48.316;10.650;2023-10-09T19:11:31;17.70;91.20
9668;DHT22;4872;48.316;10.650;2023-10-09T19:13:58;17.70;91.30
9668;DHT22;4872;48.316;10.650;2023-10-09T19:16:26;17.70;91.40
9668;DHT22;4872;48.316;10.650;2023-10-09T19:18:54;17.70;91.60
9668;DHT22;4872;48.316;10.650;2023-10-09T19:21:28;17.50;91.60
9668;DHT22;4872;48.316;10.650;2023-10-09T19:23:56;17.50;91.70
9668;DHT22;4872;48.316;10.650;2023-10-09T19:26:24;17.60;92.00
9668;DHT22;4872;48.316;10.650;2023-10-09T19:28:53;17.30;92.00
9668;DHT22;4872;48.316;10.650;2023-10-09T19:31:20;17.30;92.20
9668;DHT22;4872;48.316;10.650;2023-10-09T19:33:48;17.30;92.50
9668;DHT22;4872;48.316;10.650;2023-10-09T19:36:17;17.20;92.50
9668;DHT22;4872;48.316;10.650;2023-10-09T19:38:49;17.70;92.80
9668;DHT22;4872;48.316;10.650;2023-10-09T19:41:18;17.10;92.70
9668;DHT22;4872;48.316;10.650;2023-10-09T19:43:46;17.00;92.70
9668;DHT22;4872;48.316;10.650;2023-10-09T19:46:13;16.90;92.70
9668;DHT22;4872;48.316;10.650;2023-10-09T19:48:41;17.00;92.80
9668;DHT22;4872;48.316;10.650;2023-10-09T19:51:11;17.00;93.00
9668;DHT22;4872;48.316;10.650;2023-10-09T19:53:39;17.00;93.00
9668;DHT22;4872;48.316;10.650;2023-10-09T19:56:06;17.00;93.00
9668;DHT22;4872;48.316;10.650;2023-10-09T19:58:35;17.10;93.00
9668;DHT22;4872;48.316;10.650;2023-10-09T20:01:06;17.00;93.00
9668;DHT22;4872;48.316;10.650;2023-10-09T20:03:33;17.00;93.00
9668;DHT22;4872;48.316;10.650;2023-10-09T20:06:01;17.00;93.10
9668;DHT22;4872;48.316;10.650;2023-10-09T20:08:29;17.10;93.10
9668;DHT22;4872;48.316;10.650;2023-10-09T20:10:55;17.00;93.20
9668;DHT22;4872;48.316;10.650;2023-10-09T20:13:22;17.10;93.20
9668;DHT22;4872;48.316;10.650;2023-10-09T20:15:56;16.90;93.20
9668;DHT22;4872;48.316;10.650;2023-10-09T20:18:23;17.10;93.40
9668;DHT22;4872;48.316;10.650;2023-10-09T20:20:50;17.00;93.30
9668;DHT22;4872;48.316;10.650;2023-10-09T20:23:17;17.10;93.30
9668;DHT22;4872;48.316;10.650;2023-10-09T20:25:46;17.40;93.30
9668;DHT22;4872;48.316;10.650;2023-10-09T20:28:13;16.90;93.00
9668;DHT22;4872;48.316;10.650;2023-10-09T20:30:39;17.10;93.20
9668;DHT22;4872;48.316;10.650;2023-10-09T20:33:08;17.20;93.40